createdAt,value
2019-05-15T00:00:08.944Z,102088.21
2019-05-15T00:02:38.846Z,102086.34
2019-05-15T00:05:08.978Z,102084.30
2019-05-15T00:07:39.106Z,102080.80
2019-05-15T00:10:08.821Z,102080.84
2019-05-15T00:12:39.618Z,102080.57
2019-05-15T00:15:09.426Z,102080.60
2019-05-15T00:17:39.470Z,102079.25
2019-05-15T00:20:09.855Z,102074.38
2019-05-15T00:22:39.037Z,102077.87
2019-05-15T00:25:09.351Z,102075.46
2019-05-15T00:27:38.612Z,102072.92
2019-05-15T00:30:10.344Z,102069.47
2019-05-15T00:32:39.508Z,102067.61
2019-05-15T00:35:09.590Z,102068.44
2019-05-15T00:37:38.918Z,102067.28
2019-05-15T00:40:08.730Z,102069.27
2019-05-15T00:42:38.423Z,102069.84
2019-05-15T00:45:09.408Z,102066.41
2019-05-15T00:47:39.799Z,102068.03
2019-05-15T00:50:09.230Z,102063.20
2019-05-15T00:52:39.138Z,102062.22
2019-05-15T00:55:08.956Z,102060.09
2019-05-15T00:57:39.262Z,102059.50
2019-05-15T01:00:09.328Z,102049.88
2019-05-15T01:02:38.904Z,102056.55
2019-05-15T01:05:08.236Z,102051.63
2019-05-15T01:07:38.956Z,102048.62
2019-05-15T01:10:09.926Z,102053.02
2019-05-15T01:12:38.253Z,102049.00
2019-05-15T01:15:09.279Z,102048.62
2019-05-15T01:17:38.991Z,102052.44
2019-05-15T01:20:08.963Z,102047.79
2019-05-15T01:22:39.283Z,102046.08
2019-05-15T01:25:08.675Z,102045.58
2019-05-15T01:27:38.583Z,102044.02
2019-05-15T01:30:09.160Z,102038.16
2019-05-15T01:32:39.660Z,102041.66
2019-05-15T01:35:09.506Z,102043.70
2019-05-15T01:37:39.196Z,102041.22
2019-05-15T01:40:08.814Z,102042.64
2019-05-15T01:42:38.612Z,102038.85
2019-05-15T01:45:08.608Z,102035.77
2019-05-15T01:47:38.949Z,102031.05
2019-05-15T01:50:09.312Z,102030.23
2019-05-15T01:52:39.080Z,102029.47
2019-05-15T01:55:09.310Z,102025.66
2019-05-15T01:57:38.595Z,102027.42
2019-05-15T02:00:08.742Z,102030.20
2019-05-15T02:02:38.903Z,102027.73
2019-05-15T02:05:09.013Z,102023.89
2019-05-15T02:07:38.996Z,102025.72
2019-05-15T02:10:09.205Z,102026.64
2019-05-15T02:12:38.811Z,102019.27
2019-05-15T02:15:09.039Z,102016.02
2019-05-15T02:17:39.235Z,102021.24
2019-05-15T02:20:08.677Z,102016.94
2019-05-15T02:22:41.893Z,102018.31
2019-05-15T02:25:08.525Z,102013.48
2019-05-15T02:27:39.232Z,102015.45
2019-05-15T02:30:18.215Z,102016.05
2019-05-15T02:32:39.492Z,102011.67
2019-05-15T02:35:10.067Z,102016.31
2019-05-15T02:37:40.983Z,102012.58
2019-05-15T02:40:10.136Z,102012.13
2019-05-15T02:42:39.895Z,102008.90
2019-05-15T02:45:09.895Z,102011.12
2019-05-15T02:47:39.655Z,102005.59
2019-05-15T02:50:10.846Z,102007.95
2019-05-15T02:52:44.569Z,102006.05
2019-05-15T02:55:09.851Z,102005.19
2019-05-15T02:57:39.436Z,102008.07
2019-05-15T03:00:10.940Z,102002.14
2019-05-15T03:02:41.253Z,102001.59
2019-05-15T03:05:09.878Z,102001.97
2019-05-15T03:07:40.316Z,101999.67
2019-05-15T03:10:09.622Z,102001.30
2019-05-15T03:12:40.549Z,101997.35
2019-05-15T03:15:09.910Z,102001.66
2019-05-15T03:17:40.413Z,101993.57
2019-05-15T03:20:10.756Z,101998.06
2019-05-15T03:22:40.217Z,101996.52
2019-05-15T03:25:10.686Z,101997.75
2019-05-15T03:27:39.855Z,101995.50
2019-05-15T03:30:13.447Z,101989.78
2019-05-15T03:32:46.685Z,101994.19
2019-05-15T03:35:14.567Z,101991.16
2019-05-15T03:37:40.218Z,101998.05
2019-05-15T03:40:10.219Z,101993.19
2019-05-15T03:42:39.719Z,101995.75
2019-05-15T03:45:10.187Z,101999.03
2019-05-15T03:47:40.114Z,101992.90
2019-05-15T03:50:09.877Z,101994.64
2019-05-15T03:52:39.459Z,101994.48
2019-05-15T03:55:10.911Z,101992.25
2019-05-15T03:57:39.965Z,101996.19
2019-05-15T04:00:09.723Z,101994.42
2019-05-15T04:02:39.369Z,101994.02
2019-05-15T04:05:11.842Z,101991.32
2019-05-15T04:07:39.804Z,101990.84
2019-05-15T04:10:09.903Z,101994.64
2019-05-15T04:12:40.458Z,101995.38
2019-05-15T04:15:10.146Z,101992.63
2019-05-15T04:17:40.153Z,101994.48
2019-05-15T04:20:10.067Z,101994.34
2019-05-15T04:22:40.013Z,101995.59
2019-05-15T04:25:09.934Z,102000.83
2019-05-15T04:27:40.255Z,101994.16
2019-05-15T04:30:10.653Z,101993.30
2019-05-15T04:32:40.098Z,101990.06
2019-05-15T04:35:09.626Z,101993.73
2019-05-15T04:37:40.655Z,101994.20
2019-05-15T04:40:09.517Z,101996.79
2019-05-15T04:42:39.766Z,101990.66
2019-05-15T04:45:10.020Z,101995.32
2019-05-15T04:47:39.804Z,101992.87
2019-05-15T04:50:09.185Z,101991.86
2019-05-15T04:52:39.409Z,101992.59
2019-05-15T04:55:10.137Z,101990.11
2019-05-15T04:57:40.139Z,101989.42
2019-05-15T05:00:09.821Z,101991.83
2019-05-15T05:02:39.925Z,101994.28
2019-05-15T05:05:10.110Z,101995.08
2019-05-15T05:07:39.560Z,101992.93
2019-05-15T05:10:09.813Z,101989.46
2019-05-15T05:12:41.462Z,101990.05
2019-05-15T05:15:08.836Z,101990.05
2019-05-15T05:17:39.271Z,101997.98
2019-05-15T05:20:08.295Z,101997.94
2019-05-15T05:22:39.423Z,102001.41
2019-05-15T05:25:08.068Z,102009.73
2019-05-15T05:27:38.299Z,102015.88
2019-05-15T05:30:08.833Z,102021.95
2019-05-15T05:32:39.086Z,102021.88
2019-05-15T05:35:08.634Z,102021.97
2019-05-15T05:37:38.910Z,102030.19
2019-05-15T05:40:08.578Z,102034.77
2019-05-15T05:42:38.993Z,102032.04
2019-05-15T05:45:09.375Z,102031.59
2019-05-15T05:47:38.300Z,102040.60
2019-05-15T05:50:08.193Z,102039.95
2019-05-15T05:52:38.713Z,102046.01
2019-05-15T05:55:08.718Z,102044.70
2019-05-15T05:57:38.294Z,102048.63
2019-05-15T06:00:09.417Z,102040.08
2019-05-15T06:02:46.986Z,102038.47
2019-05-15T06:05:08.218Z,102044.81
2019-05-15T06:07:38.747Z,102038.89
2019-05-15T06:10:08.920Z,102031.92
2019-05-15T06:12:38.880Z,102033.44
2019-05-15T06:15:09.122Z,102032.89
2019-05-15T06:17:39.169Z,102031.91
2019-05-15T06:20:08.186Z,102024.62
2019-05-15T06:22:38.693Z,102027.77
2019-05-15T06:25:11.288Z,102028.06
2019-05-15T06:27:39.232Z,102024.38
2019-05-15T06:30:09.329Z,102036.64
2019-05-15T06:32:39.981Z,102034.75
2019-05-15T06:35:09.079Z,102035.61
2019-05-15T06:37:39.652Z,102032.98
2019-05-15T06:40:08.774Z,102034.80
2019-05-15T06:42:39.295Z,102042.75
2019-05-15T06:45:08.856Z,102045.77
2019-05-15T06:47:39.429Z,102037.30
2019-05-15T06:50:08.617Z,102034.91
2019-05-15T06:52:38.099Z,102028.83
2019-05-15T06:55:09.021Z,102034.72
2019-05-15T06:57:39.770Z,102024.91
2019-05-15T07:00:08.584Z,102032.45
2019-05-15T07:02:38.273Z,102021.68
2019-05-15T07:05:08.118Z,102024.52
2019-05-15T07:07:38.593Z,102020.48
2019-05-15T07:10:09.051Z,102012.29
2019-05-15T07:12:39.140Z,102022.46
2019-05-15T07:15:09.071Z,102025.33
2019-05-15T07:17:39.276Z,102018.05
2019-05-15T07:20:11.705Z,102017.14
2019-05-15T07:22:40.111Z,102021.98
2019-05-15T07:25:09.259Z,102016.88
2019-05-15T07:27:38.983Z,102017.33
2019-05-15T07:30:12.020Z,102019.70
2019-05-15T07:32:39.877Z,102022.93
2019-05-15T07:35:08.880Z,102025.18
2019-05-15T07:37:38.824Z,102012.67
2019-05-15T07:40:08.550Z,102016.08
2019-05-15T07:42:38.645Z,102016.17
2019-05-15T07:45:09.107Z,102008.80
2019-05-15T07:47:38.612Z,102008.14
2019-05-15T07:50:10.674Z,102009.95
2019-05-15T07:52:41.013Z,102009.17
2019-05-15T07:55:10.164Z,102005.82
2019-05-15T07:57:40.270Z,101997.39
2019-05-15T08:00:18.834Z,102000.20
2019-05-15T08:02:48.157Z,102003.32
2019-05-15T08:05:18.491Z,101999.92
2019-05-15T08:07:48.959Z,101995.31
2019-05-15T08:10:18.375Z,101987.38
2019-05-15T08:12:49.256Z,101988.83
2019-05-15T08:15:19.041Z,101989.45
2019-05-15T08:18:03.941Z,101985.84
2019-05-15T08:20:19.255Z,101980.38
2019-05-15T08:22:48.998Z,101987.38
2019-05-15T08:25:31.135Z,101974.06
2019-05-15T08:27:49.434Z,101972.18
2019-05-15T08:30:18.580Z,101963.16
2019-05-15T08:32:50.999Z,101966.58
2019-05-15T08:35:19.145Z,101961.21
2019-05-15T08:37:49.066Z,101963.13
2019-05-15T08:40:17.981Z,101959.12
2019-05-15T08:42:54.506Z,101955.31
2019-05-15T08:45:18.909Z,101959.81
2019-05-15T08:47:49.305Z,101952.05
2019-05-15T08:50:18.382Z,101939.73
2019-05-15T08:52:48.760Z,101940.38
2019-05-15T08:55:20.004Z,101940.03
2019-05-15T08:57:55.747Z,101935.52
2019-05-15T09:00:18.519Z,101931.86
2019-05-15T09:02:48.875Z,101928.55
2019-05-15T09:05:18.768Z,101926.18
2019-05-15T09:07:48.612Z,101920.42
2019-05-15T09:10:18.369Z,101914.69
2019-05-15T09:12:47.012Z,101920.27
2019-05-15T09:15:18.492Z,101917.31
2019-05-15T09:17:48.789Z,101906.28
2019-05-15T09:20:19.526Z,101914.36
2019-05-15T09:22:49.053Z,101912.20
2019-05-15T09:25:19.534Z,101914.31
2019-05-15T09:27:48.820Z,101907.46
2019-05-15T09:30:18.351Z,101901.70
2019-05-15T09:32:48.449Z,101895.27
2019-05-15T09:35:19.128Z,101896.48
2019-05-15T09:37:48.861Z,101898.14
2019-05-15T09:40:18.575Z,101897.33
2019-05-15T09:42:48.696Z,101893.99
2019-05-15T09:45:17.974Z,101886.14
2019-05-15T09:47:48.403Z,101874.09
2019-05-15T09:50:19.307Z,101878.77
2019-05-15T09:52:50.112Z,101874.91
2019-05-15T09:55:18.263Z,101875.70
2019-05-15T09:57:48.884Z,101875.02
2019-05-15T10:00:20.110Z,101870.52
2019-05-15T10:02:48.790Z,101860.45
2019-05-15T10:05:18.792Z,101860.27
2019-05-15T10:07:47.332Z,101849.67
2019-05-15T10:10:15.861Z,101849.65
2019-05-15T10:12:44.304Z,101845.12
2019-05-15T10:15:12.745Z,101840.98
2019-05-15T10:17:41.154Z,101837.41
2019-05-15T10:20:10.492Z,101839.39
2019-05-15T10:22:38.902Z,101838.62
2019-05-15T10:25:08.523Z,101820.97
2019-05-15T10:27:39.552Z,101831.59
2019-05-15T10:30:09.178Z,101822.24
2019-05-15T10:32:39.444Z,101814.52
2019-05-15T10:35:24.469Z,101811.84
2019-05-15T10:37:40.424Z,101810.38
2019-05-15T10:40:09.455Z,101806.71
2019-05-15T10:42:39.708Z,101810.55
2019-05-15T10:45:09.989Z,101822.86
2019-05-15T10:47:39.016Z,101813.25
2019-05-15T10:50:09.177Z,101809.23
2019-05-15T10:52:38.239Z,101801.28
2019-05-15T10:55:09.141Z,101798.49
2019-05-15T10:57:43.300Z,101793.80
2019-05-15T11:00:09.002Z,101793.90
2019-05-15T11:02:39.433Z,101796.08
2019-05-15T11:05:12.212Z,101790.13
2019-05-15T11:07:40.695Z,101796.12
2019-05-15T11:10:09.961Z,101790.65
2019-05-15T11:12:39.109Z,101785.09
2019-05-15T11:15:11.361Z,101776.07
2019-05-15T11:17:39.027Z,101781.98
2019-05-15T11:20:08.587Z,101775.31
2019-05-15T11:22:42.436Z,101770.13
2019-05-15T11:25:10.033Z,101762.94
2019-05-15T11:27:39.235Z,101768.17
2019-05-15T11:30:09.734Z,101761.61
2019-05-15T11:32:39.077Z,101743.81
2019-05-15T11:35:10.549Z,101740.54
2019-05-15T11:37:45.462Z,101749.30
2019-05-15T11:40:11.752Z,101741.39
2019-05-15T11:42:40.151Z,101739.47
2019-05-15T11:45:09.593Z,101731.94
2019-05-15T11:47:39.667Z,101732.53
2019-05-15T11:50:08.912Z,101729.05
2019-05-15T11:52:40.242Z,101729.11
2019-05-15T11:55:08.812Z,101719.49
2019-05-15T11:57:46.126Z,101717.27
2019-05-15T12:00:16.057Z,101709.27
2019-05-15T12:02:39.781Z,101720.45
2019-05-15T12:05:09.371Z,101705.17
2019-05-15T12:07:38.275Z,101708.08
2019-05-15T12:10:10.592Z,101710.88
2019-05-15T12:12:38.733Z,101708.72
2019-05-15T12:15:09.214Z,101705.94
2019-05-15T12:17:39.060Z,101713.06
2019-05-15T12:20:10.748Z,101712.16
2019-05-15T12:22:39.151Z,101704.13
2019-05-15T12:25:09.991Z,101701.58
2019-05-15T12:27:40.333Z,101708.92
2019-05-15T12:30:14.784Z,101713.62
2019-05-15T12:32:43.184Z,101703.52
2019-05-15T12:35:11.753Z,101707.23
2019-05-15T12:37:40.417Z,101704.37
2019-05-15T13:00:12.838Z,101686.59
2019-05-15T13:02:41.243Z,101683.05
2019-05-15T13:05:10.580Z,101669.77
2019-05-15T13:07:38.985Z,101678.36
2019-05-15T13:10:08.678Z,101677.44
2019-05-15T13:12:47.599Z,101673.97
2019-05-15T13:15:08.501Z,101675.48
2019-05-15T13:17:38.792Z,101672.48
2019-05-15T13:20:07.308Z,101666.66
2019-05-15T13:22:36.594Z,101662.42
2019-05-15T13:25:08.589Z,101659.66
2019-05-15T13:27:38.162Z,101665.76
2019-05-15T13:30:09.157Z,101663.18
2019-05-15T13:32:40.709Z,101661.69
2019-05-15T13:35:09.904Z,101653.10
2019-05-15T13:37:39.013Z,101657.23
2019-05-15T13:40:08.060Z,101649.94
2019-05-15T13:42:38.775Z,101652.02
2019-05-15T13:45:12.814Z,101645.31
2019-05-15T13:47:39.946Z,101648.25
2019-05-15T13:50:10.307Z,101645.54
2019-05-15T13:52:39.479Z,101643.13
2019-05-15T13:55:08.591Z,101635.44
2019-05-15T13:57:38.328Z,101627.31
2019-05-15T14:00:09.099Z,101623.07
2019-05-15T14:02:38.597Z,101617.78
2019-05-15T14:05:09.485Z,101613.05
2019-05-15T14:07:48.826Z,101620.75
2019-05-15T14:10:09.538Z,101623.91
2019-05-15T14:12:38.413Z,101628.91
2019-05-15T14:15:09.114Z,101633.64
2019-05-15T14:17:37.770Z,101625.66
2019-05-15T14:20:09.127Z,101616.50
2019-05-15T14:22:39.025Z,101620.52
2019-05-15T14:25:08.818Z,101621.73
2019-05-15T14:27:39.789Z,101622.95
2019-05-15T14:30:09.661Z,101628.22
2019-05-15T14:32:39.423Z,101615.41
2019-05-15T14:35:09.258Z,101629.41
2019-05-15T14:37:37.766Z,101612.64
2019-05-15T14:40:08.688Z,101620.87
2019-05-15T14:42:39.598Z,101607.98
2019-05-15T14:45:09.328Z,101618.56
2019-05-15T14:47:38.992Z,101610.99
2019-05-15T14:50:10.030Z,101617.10
2019-05-15T14:52:38.548Z,101604.34
2019-05-15T14:55:07.624Z,101610.19
2019-05-15T14:57:38.861Z,101616.83
2019-05-15T15:00:08.807Z,101616.39
2019-05-15T15:02:39.016Z,101608.06
2019-05-15T15:05:09.076Z,101608.67
2019-05-15T15:07:38.246Z,101607.39
2019-05-15T15:10:08.170Z,101606.91
2019-05-15T15:12:39.142Z,101599.39
2019-05-15T15:15:09.986Z,101611.20
2019-05-15T15:17:38.866Z,101604.91
2019-05-15T15:20:08.308Z,101592.84
2019-05-15T15:22:39.089Z,101597.48
2019-05-15T15:25:09.644Z,101593.67
2019-05-15T15:27:38.972Z,101602.52
2019-05-15T15:30:09.497Z,101598.86
2019-05-15T15:32:38.504Z,101590.14
2019-05-15T15:35:08.568Z,101594.05
2019-05-15T15:37:38.110Z,101594.73
2019-05-15T15:40:08.279Z,101593.85
2019-05-15T15:42:39.302Z,101587.50
2019-05-15T15:45:09.028Z,101593.53
2019-05-15T15:47:39.012Z,101593.58
2019-05-15T15:50:09.516Z,101587.13
2019-05-15T15:52:38.540Z,101587.31
2019-05-15T15:55:08.883Z,101589.01
2019-05-15T15:57:39.596Z,101588.11
2019-05-15T16:00:09.576Z,101583.38
2019-05-15T16:02:40.984Z,101588.58
2019-05-15T16:05:10.091Z,101588.35
2019-05-15T16:07:38.748Z,101582.92
2019-05-15T16:10:08.547Z,101583.83
2019-05-15T16:12:38.705Z,101582.92
2019-05-15T16:15:09.213Z,101577.66
2019-05-15T16:17:38.378Z,101578.95
2019-05-15T16:20:08.576Z,101581.06
2019-05-15T16:22:38.208Z,101576.05
2019-05-15T16:25:09.771Z,101575.77
2019-05-15T16:27:38.944Z,101570.72
2019-05-15T16:30:08.435Z,101576.14
2019-05-15T16:32:38.848Z,101571.60
2019-05-15T16:35:08.410Z,101565.94
2019-05-15T16:37:38.841Z,101568.38
2019-05-15T16:40:07.751Z,101571.47
2019-05-15T16:42:38.579Z,101567.66
2019-05-15T16:45:10.389Z,101563.59
2019-05-15T16:47:39.915Z,101568.42
2019-05-15T16:50:09.261Z,101566.65
2019-05-15T16:52:38.837Z,101560.55
2019-05-15T16:55:09.254Z,101567.11
2019-05-15T16:57:38.731Z,101560.88
2019-05-15T17:00:09.477Z,101563.78
2019-05-15T17:02:39.470Z,101561.39
2019-05-15T17:05:09.020Z,101563.28
2019-05-15T17:07:38.767Z,101560.45
2019-05-15T17:10:08.341Z,101563.92
2019-05-15T17:12:38.746Z,101569.47
2019-05-15T17:15:08.780Z,101557.22
2019-05-15T17:17:38.674Z,101565.13
2019-05-15T17:20:09.833Z,101565.08
2019-05-15T17:22:38.500Z,101566.55
2019-05-15T17:25:09.243Z,101557.16
2019-05-15T17:27:37.570Z,101561.52
2019-05-15T17:30:10.059Z,101554.13
2019-05-15T17:32:39.821Z,101557.73
2019-05-15T17:35:10.207Z,101562.41
2019-05-15T17:37:38.791Z,101559.09
2019-05-15T17:40:08.060Z,101556.04
2019-05-15T17:42:38.808Z,101550.72
2019-05-15T17:45:08.999Z,101560.99
2019-05-15T17:47:38.827Z,101570.00
2019-05-15T17:50:08.450Z,101559.48
2019-05-15T17:52:38.633Z,101569.14
2019-05-15T17:55:08.018Z,101557.48
2019-05-15T17:57:38.827Z,101563.47
2019-05-15T18:00:12.073Z,101559.84
2019-05-15T18:02:38.290Z,101561.02
2019-05-15T18:05:09.023Z,101554.73
2019-05-15T18:07:39.010Z,101554.15
2019-05-15T18:10:08.609Z,101564.10
2019-05-15T18:12:38.800Z,101563.91
2019-05-15T18:15:09.150Z,101558.02
2019-05-15T18:17:39.153Z,101565.97
2019-05-15T18:20:10.067Z,101566.06
2019-05-15T18:22:38.787Z,101558.82
2019-05-15T18:25:08.983Z,101560.06
2019-05-15T18:27:38.913Z,101557.09
2019-05-15T18:30:09.519Z,101559.19
2019-05-15T18:32:39.112Z,101558.34
2019-05-15T18:35:08.393Z,101557.04
2019-05-15T18:37:39.325Z,101555.42
2019-05-15T18:40:09.807Z,101556.23
2019-05-15T18:42:39.229Z,101562.84
2019-05-15T18:45:08.140Z,101548.58
2019-05-15T18:47:38.649Z,101553.84
2019-05-15T18:50:12.628Z,101557.34
2019-05-15T18:52:38.427Z,101552.81
2019-05-15T18:55:08.138Z,101554.52
2019-05-15T18:57:38.510Z,101556.72
2019-05-15T19:00:08.822Z,101549.58
2019-05-15T19:02:39.368Z,101556.24
2019-05-15T19:05:08.576Z,101549.54
2019-05-15T19:07:38.272Z,101556.54
2019-05-15T19:10:08.529Z,101557.97
2019-05-15T19:12:37.946Z,101557.68
2019-05-15T19:15:09.177Z,101559.89
2019-05-15T19:17:38.869Z,101548.13
2019-05-15T19:20:08.442Z,101547.02
2019-05-15T19:22:40.392Z,101547.24
2019-05-15T19:25:08.979Z,101550.84
2019-05-15T19:27:39.334Z,101547.80
2019-05-15T19:30:08.301Z,101547.47
2019-05-15T19:32:38.840Z,101549.97
2019-05-15T19:35:08.587Z,101552.55
2019-05-15T19:37:38.461Z,101555.86
2019-05-15T19:40:07.662Z,101550.53
2019-05-15T19:42:38.384Z,101551.16
2019-05-15T19:45:08.944Z,101553.22
2019-05-15T19:47:38.830Z,101546.39
2019-05-15T19:50:08.455Z,101547.97
2019-05-15T19:52:37.082Z,101544.93
2019-05-15T19:55:08.611Z,101542.95
2019-05-15T19:57:38.678Z,101539.38
2019-05-15T20:00:08.480Z,101549.08
2019-05-15T20:02:38.171Z,101551.36
2019-05-15T20:05:09.152Z,101541.13
2019-05-15T20:07:39.002Z,101547.31
2019-05-15T20:10:08.512Z,101551.28
2019-05-15T20:12:39.095Z,101548.58
2019-05-15T20:15:09.186Z,101548.25
2019-05-15T20:17:38.654Z,101546.98
2019-05-15T20:20:08.962Z,101538.11
2019-05-15T20:22:40.192Z,101545.58
2019-05-15T20:25:08.507Z,101544.14
2019-05-15T20:27:39.144Z,101540.41
2019-05-15T20:30:08.648Z,101536.45
2019-05-15T20:32:38.662Z,101539.68
2019-05-15T20:35:08.572Z,101537.03
2019-05-15T20:37:39.159Z,101538.20
2019-05-15T20:40:09.080Z,101535.46
2019-05-15T20:42:38.348Z,101541.62
2019-05-15T20:45:11.770Z,101535.16
2019-05-15T20:47:38.989Z,101542.33
2019-05-15T20:50:08.822Z,101536.39
2019-05-15T20:52:39.449Z,101539.52
2019-05-15T20:55:08.091Z,101541.69
2019-05-15T20:57:38.469Z,101538.97
2019-05-15T21:00:09.034Z,101537.88
2019-05-15T21:02:37.976Z,101539.27
2019-05-15T21:05:08.777Z,101537.67
2019-05-15T21:07:40.049Z,101534.86
2019-05-15T21:10:08.582Z,101530.07
2019-05-15T21:12:40.941Z,101531.22
2019-05-15T21:15:08.944Z,101531.52
2019-05-15T21:17:39.889Z,101525.39
2019-05-15T21:20:09.374Z,101522.67
2019-05-15T21:22:40.386Z,101525.72
2019-05-15T21:25:10.852Z,101520.47
2019-05-15T21:27:42.586Z,101521.34
2019-05-15T21:30:10.378Z,101516.66
2019-05-15T21:32:38.768Z,101517.06
2019-05-15T21:35:09.054Z,101518.22
2019-05-15T21:37:39.041Z,101516.80
2019-05-15T21:40:08.772Z,101511.06
2019-05-15T21:42:39.034Z,101506.27
2019-05-15T21:45:14.340Z,101515.91
2019-05-15T21:47:38.747Z,101514.52
2019-05-15T21:50:08.448Z,101514.75
2019-05-15T21:52:38.961Z,101513.42
2019-05-15T21:55:09.294Z,101518.97
2019-05-15T21:57:40.405Z,101512.34
2019-05-15T22:00:18.043Z,101508.37
2019-05-15T22:02:49.147Z,101517.48
2019-05-15T22:05:18.432Z,101520.44
2019-05-15T22:07:47.798Z,101514.30
2019-05-15T22:10:19.195Z,101509.31
2019-05-15T22:12:48.280Z,101509.70
2019-05-15T22:15:18.962Z,101507.83
2019-05-15T22:17:49.282Z,101503.02
2019-05-15T22:20:17.904Z,101508.06
2019-05-15T22:22:50.490Z,101511.55
2019-05-15T22:25:18.975Z,101502.45
2019-05-15T22:27:48.710Z,101499.48
2019-05-15T22:30:18.961Z,101498.50
2019-05-15T22:32:49.594Z,101496.40
2019-05-15T22:35:18.807Z,101494.67
2019-05-15T22:37:49.313Z,101497.50
2019-05-15T22:40:18.449Z,101488.98
2019-05-15T22:42:48.597Z,101487.66
2019-05-15T22:45:18.363Z,101487.03
2019-05-15T22:47:48.145Z,101488.89
2019-05-15T22:50:18.841Z,101486.31
2019-05-15T22:52:49.270Z,101474.92
2019-05-15T22:55:18.269Z,101476.19
2019-05-15T22:57:48.174Z,101469.50
2019-05-15T23:00:17.459Z,101470.59
2019-05-15T23:02:48.550Z,101464.31
2019-05-15T23:05:25.196Z,101463.68
2019-05-15T23:07:48.176Z,101464.21
2019-05-15T23:10:17.240Z,101465.47
2019-05-15T23:12:45.633Z,101458.28
2019-05-15T23:15:14.366Z,101460.56
2019-05-15T23:17:42.764Z,101455.48
2019-05-15T23:20:11.578Z,101456.17
2019-05-15T23:22:39.993Z,101451.77
2019-05-15T23:25:08.629Z,101449.13
2019-05-15T23:27:38.205Z,101451.24
2019-05-15T23:30:09.086Z,101459.89
2019-05-15T23:32:39.122Z,101443.25
2019-05-15T23:35:08.280Z,101447.47
2019-05-15T23:37:39.157Z,101447.15
2019-05-15T23:40:08.777Z,101442.96
2019-05-15T23:42:39.125Z,101446.86
2019-05-15T23:45:08.198Z,101444.05
2019-05-15T23:47:38.498Z,101436.12
2019-05-15T23:50:07.558Z,101432.99
2019-05-15T23:52:38.281Z,101434.88
2019-05-15T23:55:08.599Z,101435.32
2019-05-15T23:57:39.346Z,101432.37
